createdAt,value
2022-11-25T00:19:21.885Z,18.8
2022-11-25T00:39:21.869Z,18.7
2022-11-25T00:59:21.896Z,18.7
2022-11-25T01:19:21.847Z,18.6
2022-11-25T01:39:21.802Z,18.6
2022-11-25T01:59:21.847Z,18.6
2022-11-25T02:19:21.747Z,18.5
2022-11-25T02:39:21.735Z,18.5
2022-11-25T02:59:21.694Z,18.5
2022-11-25T03:19:21.723Z,18.4
2022-11-25T03:39:21.672Z,18.4
2022-11-25T03:59:21.642Z,18.4
2022-11-25T04:19:21.646Z,18.5
2022-11-25T04:39:21.570Z,18.7
2022-11-25T04:59:21.596Z,18.8
2022-11-25T05:19:21.581Z,18.9
2022-11-25T05:39:21.554Z,19.0
2022-11-25T05:59:21.570Z,19.0
2022-11-25T06:19:21.486Z,19.1
2022-11-25T06:39:21.432Z,19.2
2022-11-25T06:59:21.410Z,19.2
2022-11-25T07:39:21.442Z,19.2
2022-11-25T07:59:21.455Z,19.3
2022-11-25T08:19:21.431Z,19.3
2022-11-25T08:39:21.282Z,19.3
2022-11-25T08:59:21.269Z,19.3
2022-11-25T09:19:21.246Z,19.3
2022-11-25T09:39:21.356Z,19.4
2022-11-25T09:59:21.217Z,19.4
2022-11-25T10:19:21.210Z,19.4
2022-11-25T10:39:21.148Z,19.4
2022-11-25T10:59:21.087Z,19.4
2022-11-25T11:19:21.093Z,19.4
2022-11-25T11:39:21.058Z,19.4
2022-11-25T11:59:21.047Z,19.4
2022-11-25T12:19:21.018Z,19.4
2022-11-25T12:39:20.978Z,19.4
2022-11-25T12:59:20.975Z,19.4
2022-11-25T13:19:20.941Z,19.4
2022-11-25T13:39:20.935Z,19.4
2022-11-25T13:59:20.909Z,19.4
2022-11-25T14:19:20.853Z,19.4
2022-11-25T14:39:20.873Z,19.4
2022-11-25T14:59:20.800Z,19.4
2022-11-25T15:19:20.775Z,19.4
2022-11-25T15:39:20.953Z,19.4
2022-11-25T15:59:20.765Z,19.4
2022-11-25T16:19:20.719Z,19.4
2022-11-25T16:39:20.708Z,19.5
2022-11-25T16:59:20.778Z,19.6
2022-11-25T17:19:20.839Z,19.7
2022-11-25T17:39:20.802Z,19.6
2022-11-25T17:59:20.743Z,19.6
2022-11-25T18:19:20.733Z,19.6
2022-11-25T18:39:20.551Z,19.7
2022-11-25T18:59:20.508Z,19.6
2022-11-25T19:19:20.519Z,19.6
2022-11-25T19:39:20.454Z,19.5
2022-11-25T19:59:20.467Z,19.5
2022-11-25T20:19:20.420Z,19.4
2022-11-25T20:39:20.388Z,19.3
2022-11-25T20:59:20.383Z,19.2
2022-11-25T21:19:20.350Z,19.2
2022-11-25T21:39:20.314Z,19.1
2022-11-25T21:59:20.333Z,19.0
2022-11-25T22:19:20.258Z,18.9
2022-11-25T22:39:20.237Z,18.9
2022-11-25T22:59:20.244Z,18.8
2022-11-25T23:19:20.192Z,18.8
2022-11-25T23:39:20.153Z,18.7
2022-11-25T23:59:20.175Z,18.7
